createdAt,value
2023-03-12T00:02:02.454Z,2.70
2023-03-12T00:04:28.936Z,2.70
2023-03-12T00:06:55.445Z,2.67
2023-03-12T00:09:21.899Z,3.30
2023-03-12T00:11:48.396Z,2.50
2023-03-12T00:14:15.051Z,2.80
2023-03-12T00:16:43.344Z,2.73
2023-03-12T00:19:15.836Z,2.23
2023-03-12T00:21:43.096Z,2.57
2023-03-12T00:24:10.036Z,2.80
2023-03-12T00:26:36.556Z,2.83
2023-03-12T00:29:05.104Z,3.00
2023-03-12T00:31:33.179Z,2.90
2023-03-12T00:34:01.704Z,2.67
2023-03-12T00:36:30.309Z,2.60
2023-03-12T00:38:57.927Z,2.50
2023-03-12T00:41:25.730Z,2.60
2023-03-12T00:43:53.017Z,3.07
2023-03-12T00:46:21.163Z,2.77
2023-03-12T00:48:47.683Z,2.20
2023-03-12T00:51:14.542Z,2.30
2023-03-12T00:53:41.202Z,3.13
2023-03-12T00:56:08.118Z,2.37
2023-03-12T00:58:34.596Z,2.17
2023-03-12T01:01:01.124Z,2.40
2023-03-12T01:03:27.861Z,2.30
2023-03-12T01:05:57.309Z,2.00
2023-03-12T01:08:24.479Z,2.13
2023-03-12T01:10:51.299Z,2.37
2023-03-12T01:13:17.854Z,2.50
2023-03-12T01:15:44.308Z,3.10
2023-03-12T01:18:10.906Z,2.40
2023-03-12T01:20:37.484Z,2.13
2023-03-12T01:23:04.057Z,2.33
2023-03-12T01:25:30.567Z,2.40
2023-03-12T01:27:57.039Z,2.30
2023-03-12T01:30:23.768Z,2.20
2023-03-12T01:32:51.830Z,1.70
2023-03-12T01:35:18.524Z,2.30
2023-03-12T01:37:45.381Z,2.10
2023-03-12T01:40:15.935Z,2.00
2023-03-12T01:42:42.401Z,2.10
2023-03-12T01:45:46.666Z,2.83
2023-03-12T01:48:13.143Z,3.53
2023-03-12T01:50:39.668Z,3.10
2023-03-12T01:53:06.153Z,2.50
2023-03-12T01:55:32.674Z,2.70
2023-03-12T01:57:59.190Z,2.47
2023-03-12T02:00:27.262Z,2.03
2023-03-12T02:02:59.490Z,1.80
2023-03-12T02:05:33.983Z,2.67
2023-03-12T02:08:00.882Z,2.23
2023-03-12T02:10:27.379Z,1.97
2023-03-12T02:12:54.171Z,2.30
2023-03-12T02:15:21.035Z,2.00
2023-03-12T02:17:47.531Z,2.23
2023-03-12T02:20:37.982Z,2.17
2023-03-12T02:23:17.241Z,2.50
2023-03-12T02:25:48.362Z,1.73
2023-03-12T02:28:16.605Z,2.30
2023-03-12T02:30:46.772Z,2.33
2023-03-12T02:33:15.276Z,2.50
2023-03-12T02:35:42.397Z,2.17
2023-03-12T02:38:36.493Z,2.27
2023-03-12T02:41:11.010Z,2.53
2023-03-12T02:43:38.084Z,2.10
2023-03-12T02:46:04.800Z,2.20
2023-03-12T02:48:31.316Z,2.27
2023-03-12T02:50:57.778Z,2.03
2023-03-12T02:53:24.324Z,2.30
2023-03-12T02:55:50.834Z,2.50
2023-03-12T02:58:17.311Z,2.30
2023-03-12T03:00:43.810Z,2.33
2023-03-12T03:03:10.401Z,2.73
2023-03-12T03:05:37.248Z,2.33
2023-03-12T03:08:04.529Z,2.53
2023-03-12T03:10:31.185Z,2.20
2023-03-12T03:12:57.818Z,2.50
2023-03-12T03:15:24.474Z,2.10
2023-03-12T03:17:50.938Z,2.60
2023-03-12T03:20:17.473Z,2.53
2023-03-12T03:22:43.956Z,3.67
2023-03-12T03:25:10.816Z,2.53
2023-03-12T03:27:37.342Z,2.87
2023-03-12T03:30:04.722Z,2.80
2023-03-12T03:32:31.318Z,2.70
2023-03-12T03:34:57.847Z,3.13
2023-03-12T03:37:24.301Z,3.57
2023-03-12T03:39:50.763Z,3.67
2023-03-12T03:42:17.212Z,3.53
2023-03-12T03:44:43.690Z,3.50
2023-03-12T03:47:10.154Z,4.33
2023-03-12T03:49:36.633Z,4.97
2023-03-12T03:52:03.122Z,4.60
2023-03-12T03:54:31.161Z,4.57
2023-03-12T03:56:57.662Z,5.03
2023-03-12T03:59:24.383Z,5.63
2023-03-12T04:01:50.846Z,5.93
2023-03-12T04:04:17.329Z,6.63
2023-03-12T04:06:43.815Z,6.60
2023-03-12T04:09:10.655Z,7.93
2023-03-12T04:11:37.125Z,7.07
2023-03-12T04:14:03.825Z,7.47
2023-03-12T04:16:30.281Z,8.20
2023-03-12T04:18:56.729Z,8.63
2023-03-12T04:21:23.358Z,7.90
2023-03-12T04:23:49.875Z,9.37
2023-03-12T04:26:17.434Z,10.90
2023-03-12T04:28:43.937Z,12.90
2023-03-12T04:31:11.987Z,14.43
2023-03-12T04:33:40.020Z,15.60
2023-03-12T04:36:07.398Z,13.57
2023-03-12T04:38:33.916Z,14.07
2023-03-12T04:41:07.321Z,14.07
2023-03-12T04:43:33.965Z,18.73
2023-03-12T04:46:00.982Z,17.17
2023-03-12T04:48:27.510Z,16.10
2023-03-12T04:50:54.563Z,16.50
2023-03-12T04:53:21.735Z,18.07
2023-03-12T04:55:48.288Z,19.60
2023-03-12T04:58:14.806Z,17.33
2023-03-12T05:00:41.794Z,17.60
2023-03-12T05:03:08.794Z,16.87
2023-03-12T05:05:35.966Z,17.67
2023-03-12T05:08:03.241Z,18.13
2023-03-12T05:10:29.778Z,19.73
2023-03-12T05:12:56.311Z,18.40
2023-03-12T05:15:22.926Z,19.87
2023-03-12T05:17:49.426Z,18.43
2023-03-12T05:20:17.679Z,18.07
2023-03-12T05:22:44.172Z,17.17
2023-03-12T05:25:11.234Z,16.97
2023-03-12T05:27:38.088Z,18.67
2023-03-12T05:30:06.158Z,18.23
2023-03-12T05:32:33.368Z,19.00
2023-03-12T05:34:59.871Z,19.63
2023-03-12T05:37:26.312Z,19.70
2023-03-12T05:39:54.525Z,18.30
2023-03-12T05:42:20.979Z,17.80
2023-03-12T05:44:47.528Z,17.30
2023-03-12T05:47:14.021Z,17.27
2023-03-12T05:49:40.483Z,17.27
2023-03-12T05:52:07.083Z,16.67
2023-03-12T05:54:33.538Z,17.80
2023-03-12T05:57:00.526Z,16.73
2023-03-12T05:59:27.043Z,17.10
2023-03-12T06:01:53.619Z,17.37
2023-03-12T06:04:20.149Z,17.10
2023-03-12T06:06:47.053Z,17.67
2023-03-12T06:09:13.532Z,18.57
2023-03-12T06:11:40.040Z,21.10
2023-03-12T06:14:06.537Z,20.03
2023-03-12T06:16:33.119Z,22.13
2023-03-12T06:19:02.202Z,20.03
2023-03-12T06:21:31.467Z,19.17
2023-03-12T06:23:58.915Z,19.70
2023-03-12T06:26:25.960Z,18.60
2023-03-12T06:28:53.040Z,20.07
2023-03-12T06:31:22.716Z,20.20
2023-03-12T06:33:49.629Z,19.93
2023-03-12T06:36:16.395Z,19.73
2023-03-12T06:38:42.998Z,19.00
2023-03-12T06:41:14.715Z,18.53
2023-03-12T06:43:41.704Z,20.40
2023-03-12T06:46:09.780Z,19.77
2023-03-12T06:48:36.922Z,19.60
2023-03-12T06:51:04.782Z,19.30
2023-03-12T06:53:31.774Z,19.83
2023-03-12T06:55:58.748Z,20.10
2023-03-12T06:58:25.383Z,20.37
2023-03-12T07:00:52.574Z,19.33
2023-03-12T07:03:19.278Z,19.67
2023-03-12T07:05:47.454Z,20.33
2023-03-12T07:08:13.977Z,21.17
2023-03-12T07:10:40.534Z,20.33
2023-03-12T07:13:07.381Z,20.27
2023-03-12T07:15:34.327Z,20.33
2023-03-12T07:18:03.769Z,19.67
2023-03-12T07:20:30.220Z,20.70
2023-03-12T07:22:56.741Z,19.93
2023-03-12T07:25:23.251Z,19.60
2023-03-12T07:27:49.715Z,18.97
2023-03-12T07:30:16.386Z,20.53
2023-03-12T07:32:43.015Z,19.07
2023-03-12T07:35:09.962Z,20.37
2023-03-12T07:37:36.456Z,21.37
2023-03-12T07:40:07.329Z,21.03
2023-03-12T07:42:34.488Z,20.47
2023-03-12T07:45:01.006Z,20.23
2023-03-12T07:47:27.560Z,21.07
2023-03-12T07:49:54.340Z,22.50
2023-03-12T07:52:21.058Z,21.87
2023-03-12T07:54:47.951Z,21.43
2023-03-12T07:57:14.678Z,23.10
2023-03-12T07:59:41.215Z,24.37
2023-03-12T08:02:10.513Z,24.23
2023-03-12T08:04:37.283Z,23.67
2023-03-12T08:07:04.154Z,22.60
2023-03-12T08:09:30.639Z,20.50
2023-03-12T08:11:57.124Z,21.30
2023-03-12T08:14:23.633Z,21.30
2023-03-12T08:16:50.176Z,21.50
2023-03-12T08:19:16.972Z,22.87
2023-03-12T08:21:43.987Z,21.53
2023-03-12T08:24:10.559Z,22.43
2023-03-12T08:26:37.028Z,21.37
2023-03-12T08:29:03.869Z,21.83
2023-03-12T08:31:30.355Z,22.37
2023-03-12T08:33:56.823Z,20.87
2023-03-12T08:36:23.264Z,21.37
2023-03-12T08:38:49.746Z,19.47
2023-03-12T08:41:16.162Z,20.43
2023-03-12T08:43:42.643Z,20.07
2023-03-12T08:46:11.807Z,19.43
2023-03-12T08:48:39.127Z,20.37
2023-03-12T08:51:07.536Z,20.13
2023-03-12T08:53:35.745Z,19.77
2023-03-12T08:56:03.432Z,18.83
2023-03-12T08:58:30.700Z,18.57
2023-03-12T09:00:58.134Z,17.13
2023-03-12T09:03:26.032Z,17.80
2023-03-12T09:06:16.866Z,17.53
2023-03-12T09:08:44.231Z,17.37
2023-03-12T09:11:12.104Z,16.00
2023-03-12T09:13:59.768Z,14.47
2023-03-12T09:16:26.519Z,14.23
2023-03-12T09:18:53.566Z,13.50
2023-03-12T09:21:20.117Z,13.70
2023-03-12T09:23:47.236Z,13.33
2023-03-12T09:26:14.003Z,11.60
2023-03-12T09:28:40.549Z,11.47
2023-03-12T09:31:07.031Z,10.93
2023-03-12T09:33:36.404Z,10.90
2023-03-12T09:36:03.491Z,11.17
2023-03-12T09:38:31.991Z,10.87
2023-03-12T09:40:58.891Z,10.57
2023-03-12T09:43:26.596Z,10.10
2023-03-12T09:45:53.757Z,9.10
2023-03-12T09:48:29.195Z,8.93
2023-03-12T09:50:55.709Z,8.67
2023-03-12T09:53:37.712Z,8.47
2023-03-12T09:56:10.167Z,8.27
2023-03-12T09:58:38.469Z,8.83
2023-03-12T10:01:19.248Z,9.07
2023-03-12T10:04:14.509Z,8.17
2023-03-12T10:06:52.004Z,7.57
2023-03-12T10:09:44.895Z,7.03
2023-03-12T10:12:25.715Z,7.47
2023-03-12T10:15:15.254Z,6.00
2023-03-12T10:18:00.523Z,6.50
2023-03-12T10:20:26.986Z,5.80
2023-03-12T10:23:38.522Z,6.37
2023-03-12T10:26:19.435Z,5.83
2023-03-12T10:28:49.794Z,4.80
2023-03-12T10:31:21.862Z,4.80
2023-03-12T10:33:54.390Z,3.70
2023-03-12T10:36:24.216Z,4.07
2023-03-12T10:38:50.791Z,3.90
2023-03-12T10:41:25.703Z,3.73
2023-03-12T10:43:52.501Z,3.83
2023-03-12T10:46:31.256Z,3.53
2023-03-12T10:49:20.931Z,3.73
2023-03-12T10:51:59.474Z,3.83
2023-03-12T10:54:38.107Z,4.03
2023-03-12T10:57:05.130Z,4.10
2023-03-12T10:59:37.365Z,4.07
2023-03-12T11:02:30.815Z,3.40
2023-03-12T11:04:58.618Z,4.20
2023-03-12T11:07:27.762Z,3.57
2023-03-12T11:10:16.244Z,3.77
2023-03-12T11:12:56.680Z,2.93
2023-03-12T11:15:29.309Z,3.80
2023-03-12T11:18:26.859Z,3.60
2023-03-12T11:20:58.665Z,3.80
2023-03-12T11:23:30.223Z,3.80
2023-03-12T11:26:05.650Z,3.70
2023-03-12T11:28:44.437Z,3.20
2023-03-12T11:31:24.677Z,3.80
2023-03-12T11:33:52.467Z,3.23
2023-03-12T11:36:26.448Z,4.20
2023-03-12T11:39:15.637Z,3.57
2023-03-12T11:42:04.079Z,3.63
2023-03-12T11:44:41.490Z,3.40
2023-03-12T11:47:36.100Z,3.73
2023-03-12T11:50:25.268Z,3.90
2023-03-12T11:52:54.601Z,4.23
2023-03-12T11:55:45.860Z,3.90
2023-03-12T11:58:15.398Z,4.73
2023-03-12T12:00:51.170Z,4.03
2023-03-12T12:03:40.383Z,4.70
2023-03-12T12:06:42.909Z,4.50
2023-03-12T12:09:21.665Z,6.97
2023-03-12T12:12:29.421Z,5.10
2023-03-12T12:15:01.803Z,5.60
2023-03-12T12:17:40.242Z,5.30
2023-03-12T12:20:21.866Z,5.53
2023-03-12T12:22:59.762Z,5.43
2023-03-12T12:25:26.336Z,5.30
2023-03-12T12:28:11.855Z,5.53
2023-03-12T12:31:08.360Z,4.83
2023-03-12T12:33:37.896Z,5.43
2023-03-12T12:36:05.857Z,4.63
2023-03-12T12:38:42.011Z,4.23
2023-03-12T12:41:12.207Z,4.73
2023-03-12T12:43:40.878Z,5.20
2023-03-12T12:46:16.355Z,3.73
2023-03-12T12:48:53.148Z,3.73
2023-03-12T12:51:32.672Z,3.80
2023-03-12T12:54:05.213Z,4.00
2023-03-12T12:56:47.392Z,4.13
2023-03-12T12:59:31.903Z,3.93
2023-03-12T13:02:00.226Z,4.13
2023-03-12T13:04:35.495Z,3.87
2023-03-12T13:07:14.170Z,4.07
2023-03-12T13:09:50.540Z,3.60
2023-03-12T13:12:25.117Z,4.50
2023-03-12T13:14:52.932Z,4.10
2023-03-12T13:17:30.188Z,3.97
2023-03-12T13:20:11.281Z,5.10
2023-03-12T13:22:37.744Z,4.40
2023-03-12T13:25:21.717Z,3.50
2023-03-12T13:27:58.110Z,4.00
2023-03-12T13:30:49.102Z,3.60
2023-03-12T13:33:18.329Z,3.50
2023-03-12T13:36:02.964Z,3.77
2023-03-12T13:38:39.809Z,12.60
2023-03-12T13:41:07.106Z,3.87
2023-03-12T13:43:49.825Z,3.37
2023-03-12T13:46:16.285Z,3.93
2023-03-12T13:48:46.978Z,4.17
2023-03-12T13:51:18.938Z,4.70
2023-03-12T13:53:59.837Z,4.33
2023-03-12T13:56:29.193Z,3.70
2023-03-12T13:59:04.603Z,4.30
2023-03-12T14:01:43.929Z,3.57
2023-03-12T14:04:18.863Z,3.40
2023-03-12T14:07:15.548Z,3.60
2023-03-12T14:10:00.928Z,3.77
2023-03-12T14:12:44.497Z,3.87
2023-03-12T14:15:21.889Z,4.20
2023-03-12T14:17:56.207Z,3.97
2023-03-12T14:20:23.237Z,3.80
2023-03-12T14:23:00.849Z,3.07
2023-03-12T14:25:39.599Z,3.77
2023-03-12T14:28:26.333Z,3.93
2023-03-12T14:31:14.875Z,3.77
2023-03-12T14:34:05.409Z,3.67
2023-03-12T14:37:00.252Z,4.03
2023-03-12T14:39:36.367Z,3.73
2023-03-12T14:42:05.376Z,3.93
2023-03-12T14:44:33.454Z,3.80
2023-03-12T14:47:02.274Z,3.00
2023-03-12T14:49:30.018Z,3.10
2023-03-12T14:51:57.334Z,3.23
2023-03-12T14:54:27.195Z,3.03
2023-03-12T14:56:53.782Z,4.07
2023-03-12T14:59:31.086Z,2.83
2023-03-12T15:02:02.512Z,3.20
2023-03-12T15:04:30.031Z,3.30
2023-03-12T15:06:58.978Z,3.60
2023-03-12T15:09:28.256Z,3.90
2023-03-12T15:12:00.790Z,3.60
2023-03-12T15:14:29.532Z,3.77
2023-03-12T15:16:56.882Z,3.53
2023-03-12T15:19:29.196Z,5.47
2023-03-12T15:21:56.019Z,3.30
2023-03-12T15:24:22.635Z,4.10
2023-03-12T15:26:49.404Z,3.73
2023-03-12T15:29:30.431Z,3.80
2023-03-12T15:32:00.875Z,4.40
2023-03-12T15:34:32.923Z,5.53
2023-03-12T15:37:01.617Z,4.53
2023-03-12T15:39:32.258Z,4.20
2023-03-12T15:42:07.881Z,3.50
2023-03-12T15:44:45.569Z,4.80
2023-03-12T15:47:20.707Z,5.30
2023-03-12T15:49:55.439Z,4.63
2023-03-12T15:52:22.265Z,4.03
2023-03-12T15:55:26.022Z,3.93
2023-03-12T15:57:55.463Z,4.00
2023-03-12T16:00:39.120Z,4.30
2023-03-12T16:03:06.789Z,4.43
2023-03-12T16:05:35.848Z,4.70
2023-03-12T16:08:15.031Z,5.93
2023-03-12T16:10:41.741Z,5.37
2023-03-12T16:13:13.697Z,5.20
2023-03-12T16:15:40.740Z,5.00
2023-03-12T16:18:13.408Z,6.30
2023-03-12T16:20:39.948Z,6.40
2023-03-12T16:23:07.040Z,5.23
2023-03-12T16:25:33.784Z,4.90
2023-03-12T16:28:03.824Z,4.90
2023-03-12T16:30:35.439Z,5.30
2023-03-12T16:33:07.412Z,5.40
2023-03-12T16:35:35.222Z,6.20
2023-03-12T16:38:02.437Z,6.93
2023-03-12T16:40:33.715Z,5.97
2023-03-12T16:43:03.506Z,4.97
2023-03-12T16:45:31.507Z,4.53
2023-03-12T16:48:00.312Z,6.00
2023-03-12T16:50:27.120Z,5.57
2023-03-12T16:52:53.740Z,4.30
2023-03-12T16:55:21.808Z,9.43
2023-03-12T16:57:53.596Z,5.10
2023-03-12T17:00:25.012Z,5.20
2023-03-12T17:02:57.964Z,6.33
2023-03-12T17:05:25.826Z,6.10
2023-03-12T17:07:52.495Z,5.43
2023-03-12T17:10:19.285Z,5.27
2023-03-12T17:12:48.283Z,5.17
2023-03-12T17:15:18.313Z,5.10
2023-03-12T17:17:44.801Z,5.60
2023-03-12T17:20:14.529Z,5.30
2023-03-12T17:22:41.433Z,5.80
2023-03-12T17:25:10.866Z,5.77
2023-03-12T17:27:37.393Z,6.47
2023-03-12T17:30:04.212Z,6.20
2023-03-12T17:32:30.964Z,7.00
2023-03-12T17:34:59.950Z,7.20
2023-03-12T17:37:26.428Z,7.17
2023-03-12T17:39:53.069Z,7.37
2023-03-12T17:42:19.626Z,7.67
2023-03-12T17:44:46.159Z,9.73
2023-03-12T17:47:12.764Z,9.27
2023-03-12T17:49:39.618Z,9.43
2023-03-12T17:52:06.131Z,10.60
2023-03-12T17:54:32.573Z,10.40
2023-03-12T17:56:59.055Z,10.87
2023-03-12T17:59:25.495Z,10.83
2023-03-12T18:01:51.951Z,12.30
2023-03-12T18:04:18.585Z,12.17
2023-03-12T18:06:45.219Z,14.63
2023-03-12T18:09:11.654Z,15.13
2023-03-12T18:11:38.088Z,14.20
2023-03-12T18:14:04.870Z,13.13
2023-03-12T18:16:31.421Z,15.57
2023-03-12T18:18:57.962Z,14.73
2023-03-12T18:21:25.082Z,13.47
2023-03-12T18:23:51.642Z,13.80
2023-03-12T18:26:18.653Z,16.17
2023-03-12T18:28:45.199Z,13.67
2023-03-12T18:31:11.846Z,15.43
2023-03-12T18:33:38.996Z,15.30
2023-03-12T18:36:05.798Z,17.47
2023-03-12T18:38:32.776Z,14.77
2023-03-12T18:41:10.649Z,16.10
2023-03-12T18:43:37.193Z,18.13
2023-03-12T18:46:04.578Z,19.47
2023-03-12T18:48:31.590Z,17.57
2023-03-12T18:50:58.255Z,15.40
2023-03-12T18:53:24.754Z,16.67
2023-03-12T18:55:56.416Z,17.57
2023-03-12T18:58:24.230Z,18.20
2023-03-12T19:00:55.035Z,16.90
2023-03-12T19:03:22.953Z,18.97
2023-03-12T19:05:49.688Z,19.10
2023-03-12T19:08:16.288Z,18.37
2023-03-12T19:10:43.504Z,18.10
2023-03-12T19:13:10.478Z,19.00
2023-03-12T19:15:41.595Z,19.33
2023-03-12T19:18:08.186Z,20.93
2023-03-12T19:20:34.878Z,21.27
2023-03-12T19:23:01.416Z,21.30
2023-03-12T19:25:27.930Z,22.73
2023-03-12T19:27:54.446Z,23.63
2023-03-12T19:30:22.018Z,23.63
2023-03-12T19:32:48.502Z,23.97
2023-03-12T19:35:15.232Z,23.67
2023-03-12T19:37:42.354Z,24.53
2023-03-12T19:40:10.682Z,24.70
2023-03-12T19:42:37.216Z,25.93
2023-03-12T19:45:03.962Z,26.20
2023-03-12T19:47:33.131Z,27.53
2023-03-12T19:49:59.733Z,26.87
2023-03-12T19:52:26.220Z,26.13
2023-03-12T19:55:03.836Z,28.47
2023-03-12T19:57:31.595Z,28.23
2023-03-12T19:59:58.161Z,28.47
2023-03-12T20:02:24.789Z,29.63
2023-03-12T20:04:51.328Z,28.93
2023-03-12T20:07:18.448Z,29.13
2023-03-12T20:09:45.080Z,29.97
2023-03-12T20:12:11.522Z,28.93
2023-03-12T20:14:41.338Z,30.17
2023-03-12T20:17:08.995Z,29.10
2023-03-12T20:19:35.543Z,27.00
2023-03-12T20:22:02.366Z,29.40
2023-03-12T20:24:28.843Z,30.20
2023-03-12T20:26:55.325Z,30.07
2023-03-12T20:29:21.997Z,28.17
2023-03-12T20:31:48.464Z,30.07
2023-03-12T20:34:15.042Z,29.07
2023-03-12T20:36:41.602Z,28.07
2023-03-12T20:39:08.101Z,30.27
2023-03-12T20:41:34.640Z,28.77
2023-03-12T20:44:01.295Z,29.93
2023-03-12T20:46:27.903Z,31.27
2023-03-12T20:48:57.624Z,28.63
2023-03-12T20:51:24.873Z,29.57
2023-03-12T20:53:51.369Z,30.17
2023-03-12T20:56:17.834Z,28.13
2023-03-12T20:58:44.317Z,29.43
2023-03-12T21:01:10.819Z,28.43
2023-03-12T21:03:37.310Z,28.23
2023-03-12T21:06:04.062Z,27.93
2023-03-12T21:08:30.692Z,29.67
2023-03-12T21:10:57.203Z,27.40
2023-03-12T21:13:27.702Z,28.60
2023-03-12T21:15:54.314Z,28.43
2023-03-12T21:18:20.757Z,27.70
2023-03-12T21:20:49.523Z,28.03
2023-03-12T21:23:16.154Z,25.43
2023-03-12T21:25:42.669Z,26.27
2023-03-12T21:28:10.412Z,25.77
2023-03-12T21:30:37.552Z,26.77
2023-03-12T21:33:04.317Z,25.33
2023-03-12T21:35:30.915Z,25.90
2023-03-12T21:37:57.448Z,24.17
2023-03-12T21:40:24.129Z,24.83
2023-03-12T21:42:50.704Z,24.23
2023-03-12T21:45:17.360Z,24.53
2023-03-12T21:47:43.938Z,22.83
2023-03-12T21:50:11.121Z,22.73
2023-03-12T21:52:47.660Z,22.60
2023-03-12T21:55:14.581Z,21.30
2023-03-12T21:57:41.253Z,18.43
2023-03-12T22:00:12.584Z,18.80
2023-03-12T22:02:40.975Z,18.23
2023-03-12T22:05:08.587Z,17.30
2023-03-12T22:07:35.132Z,17.07
2023-03-12T22:10:01.690Z,16.67
2023-03-12T22:12:28.138Z,17.07
2023-03-12T22:14:54.614Z,15.07
2023-03-12T22:17:21.199Z,16.10
2023-03-12T22:19:47.728Z,15.60
2023-03-12T22:22:14.179Z,16.43
2023-03-12T22:24:40.829Z,15.50
2023-03-12T22:27:07.419Z,14.00
2023-03-12T22:29:34.785Z,13.37
2023-03-12T22:32:01.366Z,14.13
2023-03-12T22:34:29.614Z,13.57
2023-03-12T22:36:56.193Z,13.77
2023-03-12T22:39:22.684Z,13.67
2023-03-12T22:41:52.723Z,11.87
2023-03-12T22:44:19.460Z,13.47
2023-03-12T22:46:45.977Z,12.07
2023-03-12T22:49:12.551Z,12.67
2023-03-12T22:51:39.092Z,11.23
2023-03-12T22:54:05.811Z,11.77
2023-03-12T22:56:32.337Z,10.63
2023-03-12T22:58:59.052Z,11.73
2023-03-12T23:01:25.874Z,11.47
2023-03-12T23:03:52.611Z,11.93
2023-03-12T23:06:21.476Z,10.53
2023-03-12T23:08:48.620Z,10.60
2023-03-12T23:11:16.260Z,10.23
2023-03-12T23:13:44.619Z,9.33
2023-03-12T23:16:17.252Z,10.07
2023-03-12T23:18:44.489Z,10.17
2023-03-12T23:21:14.102Z,9.70
2023-03-12T23:23:42.198Z,9.83
2023-03-12T23:26:17.288Z,10.10
2023-03-12T23:28:43.837Z,9.07
2023-03-12T23:31:10.888Z,10.03
2023-03-12T23:33:37.794Z,9.43
2023-03-12T23:36:13.000Z,10.00
2023-03-12T23:38:39.955Z,8.30
2023-03-12T23:41:07.581Z,8.80
2023-03-12T23:43:34.546Z,9.00
2023-03-12T23:46:02.562Z,7.80
2023-03-12T23:48:30.211Z,8.93
2023-03-12T23:51:14.551Z,9.73
2023-03-12T23:53:43.794Z,9.23
2023-03-12T23:56:13.187Z,8.30
2023-03-12T23:58:39.675Z,9.17
